createdAt,value
2022-09-25T00:02:24.308Z,9.34
2022-09-25T00:07:26.293Z,9.27
2022-09-25T00:12:28.198Z,9.21
2022-09-25T00:17:30.149Z,9.19
2022-09-25T00:22:32.084Z,9.11
2022-09-25T00:27:33.994Z,9.08
2022-09-25T00:32:36.145Z,8.96
2022-09-25T00:37:38.213Z,8.89
2022-09-25T00:42:41.150Z,8.82
2022-09-25T00:48:01.202Z,8.77
2022-09-25T00:53:16.789Z,8.68
2022-09-25T00:58:23.793Z,8.75
2022-09-25T01:03:27.565Z,8.72
2022-09-25T01:08:31.025Z,8.83
2022-09-25T01:13:33.397Z,8.91
2022-09-25T01:19:08.181Z,8.90
2022-09-25T01:24:34.604Z,8.85
2022-09-25T01:29:42.770Z,8.98
2022-09-25T01:34:55.502Z,8.96
2022-09-25T01:40:21.065Z,8.95
2022-09-25T01:45:35.082Z,8.76
2022-09-25T01:50:47.066Z,8.72
2022-09-25T01:55:54.543Z,8.62
2022-09-25T02:01:16.891Z,8.63
2022-09-25T02:06:20.966Z,8.60
2022-09-25T02:11:25.925Z,8.50
2022-09-25T02:16:43.587Z,8.42
2022-09-25T02:21:59.906Z,8.34
2022-09-25T02:27:02.947Z,8.22
2022-09-25T02:32:11.899Z,8.20
2022-09-25T02:37:15.145Z,8.18
2022-09-25T02:42:32.606Z,8.16
2022-09-25T02:47:40.024Z,8.11
2022-09-25T02:52:46.330Z,8.13
2022-09-25T02:58:01.539Z,8.07
2022-09-25T03:03:07.498Z,7.96
2022-09-25T03:08:28.273Z,7.93
2022-09-25T03:13:31.333Z,7.84
2022-09-25T03:18:33.904Z,7.79
2022-09-25T03:23:35.918Z,7.75
2022-09-25T03:28:37.777Z,7.69
2022-09-25T03:33:41.681Z,7.55
2022-09-25T03:38:44.052Z,7.58
2022-09-25T03:43:48.712Z,7.54
2022-09-25T03:48:52.177Z,7.47
2022-09-25T03:53:55.067Z,7.41
2022-09-25T03:58:57.790Z,7.43
2022-09-25T04:04:03.216Z,7.50
2022-09-25T04:09:05.223Z,7.45
2022-09-25T04:14:07.343Z,7.46
2022-09-25T04:19:10.367Z,7.54
2022-09-25T04:24:31.113Z,7.64
2022-09-25T04:29:32.967Z,7.64
2022-09-25T04:34:35.045Z,7.73
2022-09-25T04:39:37.007Z,7.89
2022-09-25T04:44:39.438Z,8.02
2022-09-25T04:49:41.959Z,8.08
2022-09-25T04:54:43.841Z,8.24
2022-09-25T04:59:46.034Z,8.32
2022-09-25T05:04:48.275Z,8.46
2022-09-25T05:09:50.150Z,8.63
2022-09-25T05:14:52.086Z,8.63
2022-09-25T05:19:54.026Z,8.83
2022-09-25T05:24:59.020Z,8.98
2022-09-25T05:30:01.621Z,9.17
2022-09-25T05:35:04.272Z,9.46
2022-09-25T05:40:06.848Z,9.68
2022-09-25T05:45:09.738Z,10.05
2022-09-25T05:50:15.521Z,10.39
2022-09-25T05:55:17.531Z,10.59
2022-09-25T06:00:19.619Z,10.85
2022-09-25T06:05:21.521Z,10.99
2022-09-25T06:10:26.117Z,11.25
2022-09-25T06:15:38.637Z,11.36
2022-09-25T06:20:40.991Z,11.49
2022-09-25T06:25:42.978Z,11.70
2022-09-25T06:30:45.700Z,11.91
2022-09-25T06:35:48.950Z,12.31
2022-09-25T06:40:50.952Z,12.43
2022-09-25T06:45:53.211Z,12.61
2022-09-25T06:50:56.852Z,12.76
2022-09-25T06:56:00.176Z,12.80
2022-09-25T07:01:06.292Z,13.22
2022-09-25T07:06:14.137Z,13.44
2022-09-25T07:11:21.466Z,13.59
2022-09-25T07:16:29.749Z,14.07
2022-09-25T07:21:32.471Z,14.03
2022-09-25T07:26:34.651Z,14.25
2022-09-25T07:31:37.962Z,14.17
2022-09-25T07:36:42.690Z,14.09
2022-09-25T07:41:44.568Z,14.03
2022-09-25T07:46:47.005Z,14.30
2022-09-25T07:51:49.222Z,14.48
2022-09-25T07:56:51.549Z,14.97
2022-09-25T08:01:54.398Z,15.70
2022-09-25T08:06:59.376Z,15.88
2022-09-25T08:12:02.647Z,16.27
2022-09-25T08:17:04.594Z,16.71
2022-09-25T08:22:06.464Z,16.87
2022-09-25T08:27:08.509Z,17.24
2022-09-25T08:32:10.387Z,17.21
2022-09-25T08:37:12.310Z,17.40
2022-09-25T08:42:21.320Z,17.53
2022-09-25T08:47:44.522Z,17.83
2022-09-25T08:52:57.397Z,17.49
2022-09-25T08:57:59.556Z,17.24
2022-09-25T09:03:01.833Z,17.04
2022-09-25T09:08:10.528Z,16.86
2022-09-25T09:13:34.536Z,16.62
2022-09-25T09:18:39.513Z,16.77
2022-09-25T09:23:59.439Z,16.52
2022-09-25T09:29:13.201Z,16.58
2022-09-25T09:34:36.161Z,16.29
2022-09-25T09:40:15.311Z,16.43
2022-09-25T09:45:35.826Z,17.03
2022-09-25T09:50:56.094Z,17.80
2022-09-25T09:56:19.813Z,18.21
2022-09-25T10:01:40.732Z,18.79
2022-09-25T10:06:59.267Z,19.58
2022-09-25T10:12:14.929Z,19.87
2022-09-25T10:17:19.158Z,20.13
2022-09-25T10:22:26.540Z,19.92
2022-09-25T10:27:31.084Z,19.79
2022-09-25T10:32:46.913Z,19.89
2022-09-25T10:37:53.346Z,20.19
2022-09-25T10:43:18.702Z,19.91
2022-09-25T10:48:56.339Z,19.79
2022-09-25T10:54:16.493Z,19.24
2022-09-25T10:59:23.571Z,19.23
2022-09-25T11:04:30.041Z,19.22
2022-09-25T11:09:33.590Z,18.47
2022-09-25T11:14:36.856Z,18.76
2022-09-25T11:19:38.941Z,18.89
2022-09-25T11:24:57.187Z,18.89
2022-09-25T11:30:04.021Z,19.27
2022-09-25T11:35:30.552Z,19.60
2022-09-25T11:41:15.042Z,20.19
2022-09-25T11:46:33.879Z,20.41
2022-09-25T11:51:58.084Z,20.15
2022-09-25T11:57:11.045Z,20.65
2022-09-25T12:02:16.094Z,21.21
2022-09-25T12:07:32.586Z,21.34
2022-09-25T12:12:48.053Z,21.91
2022-09-25T12:18:34.281Z,21.74
2022-09-25T12:23:59.614Z,21.68
2022-09-25T12:29:29.102Z,22.11
2022-09-25T12:34:33.769Z,22.80
2022-09-25T12:39:41.298Z,22.97
2022-09-25T12:45:06.249Z,23.30
2022-09-25T12:50:17.917Z,23.41
2022-09-25T12:55:26.339Z,23.41
2022-09-25T13:00:32.963Z,22.87
2022-09-25T13:05:46.509Z,22.41
2022-09-25T13:10:52.495Z,22.27
2022-09-25T13:16:02.775Z,22.20
2022-09-25T13:21:32.103Z,22.14
2022-09-25T13:26:53.842Z,22.37
2022-09-25T13:32:13.856Z,21.89
2022-09-25T13:37:16.257Z,22.18
2022-09-25T13:42:33.238Z,22.09
2022-09-25T13:47:38.548Z,22.03
2022-09-25T13:52:40.550Z,21.96
2022-09-25T13:58:01.417Z,22.13
2022-09-25T14:03:05.121Z,22.02
2022-09-25T14:08:12.170Z,21.89
2022-09-25T14:13:16.374Z,21.93
2022-09-25T14:18:26.268Z,21.78
2022-09-25T14:23:30.668Z,21.81
2022-09-25T14:28:36.304Z,21.78
2022-09-25T14:33:51.796Z,21.51
2022-09-25T14:39:29.323Z,21.47
2022-09-25T14:44:40.337Z,21.43
2022-09-25T14:49:49.497Z,21.11
2022-09-25T14:54:55.393Z,21.10
2022-09-25T15:00:07.785Z,20.77
2022-09-25T15:05:27.264Z,20.79
2022-09-25T15:10:37.835Z,20.69
2022-09-25T15:15:40.507Z,20.49
2022-09-25T15:20:47.496Z,20.21
2022-09-25T15:25:53.769Z,20.02
2022-09-25T15:30:58.201Z,19.79
2022-09-25T15:36:03.582Z,19.73
2022-09-25T15:41:12.612Z,19.57
2022-09-25T15:46:31.560Z,19.32
2022-09-25T15:51:35.999Z,19.11
2022-09-25T15:56:51.165Z,19.05
2022-09-25T16:02:12.635Z,18.76
2022-09-25T16:07:34.403Z,18.67
2022-09-25T16:12:42.580Z,18.51
2022-09-25T16:17:44.689Z,18.38
2022-09-25T16:22:49.564Z,18.29
2022-09-25T16:27:54.665Z,18.08
2022-09-25T16:33:03.747Z,18.00
2022-09-25T16:38:06.129Z,17.85
2022-09-25T16:43:25.859Z,17.64
2022-09-25T16:48:39.399Z,17.41
2022-09-25T16:53:41.513Z,17.30
2022-09-25T16:58:43.608Z,17.14
2022-09-25T17:03:51.790Z,17.00
2022-09-25T17:08:54.032Z,16.82
2022-09-25T17:13:56.269Z,16.52
2022-09-25T17:19:01.503Z,16.39
2022-09-25T17:24:10.216Z,16.22
2022-09-25T17:29:13.289Z,16.08
2022-09-25T17:34:21.587Z,16.01
2022-09-25T17:39:24.200Z,15.97
2022-09-25T17:44:27.544Z,16.00
2022-09-25T17:49:29.675Z,15.84
2022-09-25T17:54:31.752Z,15.70
2022-09-25T17:59:37.040Z,15.48
2022-09-25T18:04:39.175Z,15.22
2022-09-25T18:09:41.728Z,15.02
2022-09-25T18:14:46.332Z,14.94
2022-09-25T18:20:06.901Z,14.81
2022-09-25T18:25:10.798Z,14.68
2022-09-25T18:30:15.912Z,14.62
2022-09-25T18:35:19.556Z,14.50
2022-09-25T18:40:21.763Z,14.37
2022-09-25T18:45:24.404Z,14.34
2022-09-25T18:50:28.337Z,14.32
2022-09-25T18:55:30.552Z,14.30
2022-09-25T19:00:33.557Z,14.33
2022-09-25T19:05:35.616Z,14.25
2022-09-25T19:10:38.323Z,14.21
2022-09-25T19:15:43.483Z,14.24
2022-09-25T19:20:54.746Z,14.10
2022-09-25T19:25:59.496Z,14.07
2022-09-25T19:31:06.696Z,14.07
2022-09-25T19:36:21.194Z,13.99
2022-09-25T19:41:26.606Z,14.09
2022-09-25T19:46:29.457Z,14.14
2022-09-25T19:51:32.137Z,14.17
2022-09-25T19:56:40.558Z,14.11
2022-09-25T20:01:44.140Z,14.09
2022-09-25T20:06:53.294Z,13.98
2022-09-25T20:12:07.989Z,14.04
2022-09-25T20:17:10.485Z,13.98
2022-09-25T20:22:12.569Z,13.83
2022-09-25T20:27:14.661Z,13.77
2022-09-25T20:32:16.774Z,13.63
2022-09-25T20:37:18.896Z,13.51
2022-09-25T20:42:21.369Z,13.48
2022-09-25T20:47:23.271Z,13.43
2022-09-25T20:52:26.314Z,13.36
2022-09-25T20:57:32.920Z,13.36
2022-09-25T21:02:35.020Z,13.36
2022-09-25T21:07:36.990Z,13.33
2022-09-25T21:12:39.021Z,13.25
2022-09-25T21:17:40.935Z,13.14
2022-09-25T21:22:42.892Z,13.04
2022-09-25T21:27:45.097Z,12.94
2022-09-25T21:32:47.305Z,12.81
2022-09-25T21:37:49.358Z,12.66
2022-09-25T21:42:51.206Z,12.57
2022-09-25T21:47:53.224Z,12.44
2022-09-25T21:52:55.296Z,12.37
2022-09-25T21:57:57.295Z,12.37
2022-09-25T22:02:59.245Z,12.34
2022-09-25T22:08:01.633Z,12.23
2022-09-25T22:13:04.283Z,12.14
2022-09-25T22:18:06.592Z,12.06
2022-09-25T22:23:08.461Z,11.98
2022-09-25T22:28:10.425Z,11.92
2022-09-25T22:33:12.420Z,11.88
2022-09-25T22:38:14.353Z,11.84
2022-09-25T22:43:16.430Z,11.75
2022-09-25T22:48:19.309Z,11.70
2022-09-25T22:53:22.244Z,11.58
2022-09-25T22:58:24.437Z,11.48
2022-09-25T23:03:26.496Z,11.42
2022-09-25T23:08:29.455Z,11.42
2022-09-25T23:13:32.193Z,11.37
2022-09-25T23:18:36.203Z,11.37
2022-09-25T23:23:38.292Z,11.36
2022-09-25T23:28:41.294Z,11.34
2022-09-25T23:33:44.169Z,11.29
2022-09-25T23:38:47.673Z,11.27
2022-09-25T23:43:52.127Z,11.28
2022-09-25T23:48:55.013Z,11.22
2022-09-25T23:53:59.606Z,11.17
2022-09-25T23:59:02.394Z,11.16
